sensor_id;sensor_type;location;lat;lon;timestamp;pressure;altitude;pressure_sealevel;temperature;humidity
64841;BME280;51307;52.162;7.560;2023-09-08T00:01:13;101333.69;;;21.94;53.38
64841;BME280;51307;52.162;7.560;2023-09-08T00:03:39;101323.19;;;21.98;53.63
64841;BME280;51307;52.162;7.560;2023-09-08T00:06:05;101326.16;;;22.15;53.04
64841;BME280;51307;52.162;7.560;2023-09-08T00:08:30;101324.41;;;22.02;53.72
64841;BME280;51307;52.162;7.560;2023-09-08T00:10:55;101320.13;;;21.88;54.09
64841;BME280;51307;52.162;7.560;2023-09-08T00:13:21;101318.69;;;21.85;54.30
64841;BME280;51307;52.162;7.560;2023-09-08T00:15:46;101321.97;;;21.94;53.95
64841;BME280;51307;52.162;7.560;2023-09-08T00:18:12;101324.41;;;22.21;53.12
64841;BME280;51307;52.162;7.560;2023-09-08T00:20:37;101310.47;;;21.60;54.68
64841;BME280;51307;52.162;7.560;2023-09-08T00:23:03;101316.59;;;21.55;54.89
64841;BME280;51307;52.162;7.560;2023-09-08T00:25:28;101313.28;;;21.46;55.32
64841;BME280;51307;52.162;7.560;2023-09-08T00:27:54;101314.69;;;21.56;54.89
64841;BME280;51307;52.162;7.560;2023-09-08T00:30:19;101313.19;;;21.60;55.08
64841;BME280;51307;52.162;7.560;2023-09-08T00:32:45;101315.03;;;21.73;54.16
64841;BME280;51307;52.162;7.560;2023-09-08T00:35:11;101311.38;;;21.54;54.96
64841;BME280;51307;52.162;7.560;2023-09-08T00:37:39;101314.38;;;21.45;55.35
64841;BME280;51307;52.162;7.560;2023-09-08T00:40:06;101306.81;;;21.47;54.63
64841;BME280;51307;52.162;7.560;2023-09-08T00:42:33;101301.69;;;21.64;54.28
64841;BME280;51307;52.162;7.560;2023-09-08T00:44:59;101304.34;;;21.39;55.42
64841;BME280;51307;52.162;7.560;2023-09-08T00:47:25;101300.94;;;21.44;55.25
64841;BME280;51307;52.162;7.560;2023-09-08T00:49:50;101309.41;;;21.36;55.65
64841;BME280;51307;52.162;7.560;2023-09-08T00:52:17;101296.38;;;21.44;55.38
64841;BME280;51307;52.162;7.560;2023-09-08T00:54:42;101307.34;;;21.31;55.54
64841;BME280;51307;52.162;7.560;2023-09-08T00:57:09;101301.53;;;21.21;56.00
64841;BME280;51307;52.162;7.560;2023-09-08T00:59:35;101305.75;;;21.17;55.91
64841;BME280;51307;52.162;7.560;2023-09-08T01:02:02;101304.34;;;21.39;55.36
64841;BME280;51307;52.162;7.560;2023-09-08T01:04:28;101308.03;;;21.20;55.93
64841;BME280;51307;52.162;7.560;2023-09-08T01:06:55;101308.06;;;21.13;56.10
64841;BME280;51307;52.162;7.560;2023-09-08T01:09:23;101310.84;;;21.38;55.53
64841;BME280;51307;52.162;7.560;2023-09-08T01:11:50;101310.78;;;21.13;55.93
64841;BME280;51307;52.162;7.560;2023-09-08T01:14:17;101306.25;;;21.39;55.46
64841;BME280;51307;52.162;7.560;2023-09-08T01:16:43;101301.28;;;20.97;56.83
64841;BME280;51307;52.162;7.560;2023-09-08T01:19:13;101302.81;;;21.18;55.75
64841;BME280;51307;52.162;7.560;2023-09-08T01:27:29;101307.16;;;20.80;57.21
64841;BME280;51307;52.162;7.560;2023-09-08T01:29:59;101302.34;;;20.82;56.83
64841;BME280;51307;52.162;7.560;2023-09-08T01:32:26;101304.66;;;20.79;56.92
64841;BME280;51307;52.162;7.560;2023-09-08T01:34:52;101298.38;;;20.92;56.60
64841;BME280;51307;52.162;7.560;2023-09-08T01:37:17;101308.44;;;20.85;56.39
64841;BME280;51307;52.162;7.560;2023-09-08T01:39:43;101306.13;;;20.81;56.56
64841;BME280;51307;52.162;7.560;2023-09-08T01:42:08;101297.78;;;20.70;56.96
64841;BME280;51307;52.162;7.560;2023-09-08T01:44:34;101297.34;;;20.79;56.43
64841;BME280;51307;52.162;7.560;2023-09-08T01:46:59;101300.50;;;20.76;56.37
64841;BME280;51307;52.162;7.560;2023-09-08T01:49:25;101298.81;;;20.75;56.54
64841;BME280;51307;52.162;7.560;2023-09-08T01:51:51;101303.66;;;20.73;56.59
64841;BME280;51307;52.162;7.560;2023-09-08T01:54:17;101300.13;;;20.66;57.02
64841;BME280;51307;52.162;7.560;2023-09-08T01:56:42;101299.25;;;20.72;56.74
64841;BME280;51307;52.162;7.560;2023-09-08T01:59:08;101297.81;;;20.63;56.95
64841;BME280;51307;52.162;7.560;2023-09-08T02:01:33;101290.91;;;20.67;56.81
64841;BME280;51307;52.162;7.560;2023-09-08T02:03:59;101293.47;;;20.62;57.38
64841;BME280;51307;52.162;7.560;2023-09-08T02:06:27;101290.91;;;20.67;57.33
64841;BME280;51307;52.162;7.560;2023-09-08T02:08:52;101286.16;;;20.56;57.77
64841;BME280;51307;52.162;7.560;2023-09-08T02:11:18;101291.19;;;20.45;57.93
64841;BME280;51307;52.162;7.560;2023-09-08T02:13:43;101291.31;;;20.71;57.02
64841;BME280;51307;52.162;7.560;2023-09-08T02:16:15;101284.53;;;20.41;58.11
64841;BME280;51307;52.162;7.560;2023-09-08T02:18:42;101288.47;;;20.52;57.58
64841;BME280;51307;52.162;7.560;2023-09-08T02:21:08;101287.28;;;20.21;58.65
64841;BME280;51307;52.162;7.560;2023-09-08T02:23:34;101283.91;;;20.46;57.92
64841;BME280;51307;52.162;7.560;2023-09-08T02:25:59;101291.91;;;20.14;58.58
64841;BME280;51307;52.162;7.560;2023-09-08T02:28:25;101280.41;;;20.12;58.57
64841;BME280;51307;52.162;7.560;2023-09-08T02:30:50;101279.38;;;20.13;58.25
64841;BME280;51307;52.162;7.560;2023-09-08T02:33:16;101278.78;;;20.11;58.59
64841;BME280;51307;52.162;7.560;2023-09-08T02:35:41;101280.81;;;20.22;58.32
64841;BME280;51307;52.162;7.560;2023-09-08T02:38:07;101290.69;;;20.10;58.68
64841;BME280;51307;52.162;7.560;2023-09-08T02:40:33;101286.69;;;20.26;58.07
64841;BME280;51307;52.162;7.560;2023-09-08T02:43:00;101294.00;;;20.05;58.62
64841;BME280;51307;52.162;7.560;2023-09-08T02:45:26;101285.81;;;20.25;57.84
64841;BME280;51307;52.162;7.560;2023-09-08T02:47:51;101293.16;;;19.98;59.04
64841;BME280;51307;52.162;7.560;2023-09-08T02:50:17;101292.38;;;20.04;58.62
64841;BME280;51307;52.162;7.560;2023-09-08T02:52:43;101300.50;;;19.97;59.14
64841;BME280;51307;52.162;7.560;2023-09-08T02:55:08;101301.31;;;20.25;57.97
64841;BME280;51307;52.162;7.560;2023-09-08T02:57:34;101304.22;;;20.30;57.94
64841;BME280;51307;52.162;7.560;2023-09-08T02:59:59;101301.53;;;20.17;58.39
64841;BME280;51307;52.162;7.560;2023-09-08T03:02:25;101304.84;;;20.19;58.32
64841;BME280;51307;52.162;7.560;2023-09-08T03:04:51;101306.97;;;20.10;58.50
64841;BME280;51307;52.162;7.560;2023-09-08T03:07:17;101304.88;;;20.05;58.42
64841;BME280;51307;52.162;7.560;2023-09-08T03:09:42;101295.66;;;19.93;59.45
64841;BME280;51307;52.162;7.560;2023-09-08T03:12:08;101299.03;;;19.81;59.73
64841;BME280;51307;52.162;7.560;2023-09-08T03:14:33;101295.28;;;19.83;59.33
64841;BME280;51307;52.162;7.560;2023-09-08T03:16:59;101300.28;;;19.72;59.83
64841;BME280;51307;52.162;7.560;2023-09-08T03:19:24;101303.22;;;19.64;60.24
64841;BME280;51307;52.162;7.560;2023-09-08T03:21:50;101297.38;;;19.74;59.64
64841;BME280;51307;52.162;7.560;2023-09-08T03:24:15;101291.09;;;19.53;60.42
64841;BME280;51307;52.162;7.560;2023-09-08T03:26:41;101295.28;;;19.56;60.07
64841;BME280;51307;52.162;7.560;2023-09-08T03:29:06;101293.19;;;19.51;60.16
64841;BME280;51307;52.162;7.560;2023-09-08T03:31:32;101291.09;;;19.53;60.18
64841;BME280;51307;52.162;7.560;2023-09-08T03:33:57;101290.47;;;19.44;60.42
64841;BME280;51307;52.162;7.560;2023-09-08T03:36:23;101289.22;;;19.67;59.72
64841;BME280;51307;52.162;7.560;2023-09-08T03:38:50;101283.56;;;19.62;59.87
64841;BME280;51307;52.162;7.560;2023-09-08T03:41:15;101293.81;;;19.40;60.70
64841;BME280;51307;52.162;7.560;2023-09-08T03:43:41;101295.28;;;19.49;60.31
64841;BME280;51307;52.162;7.560;2023-09-08T03:46:06;101291.91;;;19.40;60.73
64841;BME280;51307;52.162;7.560;2023-09-08T03:48:32;101290.47;;;19.64;59.69
64841;BME280;51307;52.162;7.560;2023-09-08T03:50:58;101287.75;;;19.44;60.38
64841;BME280;51307;52.162;7.560;2023-09-08T03:53:23;101294.84;;;19.39;60.74
64841;BME280;51307;52.162;7.560;2023-09-08T03:55:49;101288.59;;;19.45;60.32
64841;BME280;51307;52.162;7.560;2023-09-08T03:58:14;101287.53;;;19.66;59.81
64841;BME280;51307;52.162;7.560;2023-09-08T04:00:41;101293.59;;;19.41;60.36
64841;BME280;51307;52.162;7.560;2023-09-08T04:03:07;101286.47;;;19.27;60.61
64841;BME280;51307;52.162;7.560;2023-09-08T04:05:33;101285.22;;;19.36;60.47
64841;BME280;51307;52.162;7.560;2023-09-08T04:07:58;101286.25;;;19.28;60.71
64841;BME280;51307;52.162;7.560;2023-09-08T04:10:24;101279.97;;;19.14;60.96
64841;BME280;51307;52.162;7.560;2023-09-08T04:12:49;101293.72;;;19.13;60.97
64841;BME280;51307;52.162;7.560;2023-09-08T04:15:15;101281.63;;;19.09;61.22
64841;BME280;51307;52.162;7.560;2023-09-08T04:17:40;101281.19;;;19.05;61.15
64841;BME280;51307;52.162;7.560;2023-09-08T04:20:07;101274.72;;;19.00;61.19
64841;BME280;51307;52.162;7.560;2023-09-08T04:22:34;101278.28;;;19.13;60.99
64841;BME280;51307;52.162;7.560;2023-09-08T04:25:01;101273.63;;;18.87;61.44
64841;BME280;51307;52.162;7.560;2023-09-08T04:27:26;101269.03;;;18.88;61.45
64841;BME280;51307;52.162;7.560;2023-09-08T04:29:52;101271.13;;;18.86;61.73
64841;BME280;51307;52.162;7.560;2023-09-08T04:32:17;101269.03;;;18.88;61.69
64841;BME280;51307;52.162;7.560;2023-09-08T04:34:43;101272.59;;;18.88;61.58
64841;BME280;51307;52.162;7.560;2023-09-08T04:37:09;101270.91;;;18.80;61.85
64841;BME280;51307;52.162;7.560;2023-09-08T04:39:35;101273.44;;;18.95;61.54
64841;BME280;51307;52.162;7.560;2023-09-08T04:42:03;101275.50;;;18.87;61.91
64841;BME280;51307;52.162;7.560;2023-09-08T04:44:29;101280.53;;;18.90;61.74
64841;BME280;51307;52.162;7.560;2023-09-08T04:46:54;101280.91;;;18.80;62.00
64841;BME280;51307;52.162;7.560;2023-09-08T04:49:20;101280.91;;;18.87;61.70
64841;BME280;51307;52.162;7.560;2023-09-08T04:51:45;101287.22;;;18.94;61.53
64841;BME280;51307;52.162;7.560;2023-09-08T04:54:11;101278.41;;;18.78;62.05
64841;BME280;51307;52.162;7.560;2023-09-08T04:56:38;101280.72;;;18.81;61.88
64841;BME280;51307;52.162;7.560;2023-09-08T04:59:05;101281.72;;;18.74;62.20
64841;BME280;51307;52.162;7.560;2023-09-08T05:01:30;101281.09;;;18.78;61.63
64841;BME280;51307;52.162;7.560;2023-09-08T05:04:01;101285.91;;;18.76;61.76
64841;BME280;51307;52.162;7.560;2023-09-08T05:06:26;101283.56;;;18.67;62.31
64841;BME280;51307;52.162;7.560;2023-09-08T05:08:52;101280.03;;;18.73;62.31
64841;BME280;51307;52.162;7.560;2023-09-08T05:11:17;101281.53;;;18.75;62.14
64841;BME280;51307;52.162;7.560;2023-09-08T05:13:44;101283.38;;;18.68;62.18
64841;BME280;51307;52.162;7.560;2023-09-08T05:16:10;101283.81;;;18.78;61.98
64841;BME280;51307;52.162;7.560;2023-09-08T05:18:39;101283.44;;;18.81;61.73
64841;BME280;51307;52.162;7.560;2023-09-08T05:21:05;101289.16;;;18.58;62.61
64841;BME280;51307;52.162;7.560;2023-09-08T05:23:31;101292.47;;;18.54;62.49
64841;BME280;51307;52.162;7.560;2023-09-08T05:25:56;101292.94;;;18.57;62.62
64841;BME280;51307;52.162;7.560;2023-09-08T05:28:21;101298.38;;;18.64;62.75
64841;BME280;51307;52.162;7.560;2023-09-08T05:30:47;101292.75;;;18.66;62.86
64841;BME280;51307;52.162;7.560;2023-09-08T05:33:12;101298.38;;;18.64;62.77
64841;BME280;51307;52.162;7.560;2023-09-08T05:35:38;101283.97;;;18.63;62.85
64841;BME280;51307;52.162;7.560;2023-09-08T05:38:04;101292.16;;;18.77;62.45
64841;BME280;51307;52.162;7.560;2023-09-08T05:40:30;101292.38;;;18.75;62.41
64841;BME280;51307;52.162;7.560;2023-09-08T05:42:55;101296.19;;;18.94;61.92
64841;BME280;51307;52.162;7.560;2023-09-08T05:45:21;101290.09;;;18.79;62.17
64841;BME280;51307;52.162;7.560;2023-09-08T05:47:47;101293.84;;;18.78;62.82
64841;BME280;51307;52.162;7.560;2023-09-08T05:50:14;101279.63;;;18.76;62.63
64841;BME280;51307;52.162;7.560;2023-09-08T05:52:40;101276.75;;;18.91;62.39
64841;BME280;51307;52.162;7.560;2023-09-08T05:55:05;101291.00;;;19.06;62.00
64841;BME280;51307;52.162;7.560;2023-09-08T05:57:31;101294.31;;;19.08;62.22
64841;BME280;51307;52.162;7.560;2023-09-08T05:59:57;101294.13;;;19.03;62.28
64841;BME280;51307;52.162;7.560;2023-09-08T06:02:22;101297.75;;;19.30;61.48
64841;BME280;51307;52.162;7.560;2023-09-08T06:04:48;101294.38;;;19.22;61.62
64841;BME280;51307;52.162;7.560;2023-09-08T06:07:13;101292.13;;;19.45;61.38
64841;BME280;51307;52.162;7.560;2023-09-08T06:09:39;101291.50;;;19.37;61.81
64841;BME280;51307;52.162;7.560;2023-09-08T06:12:05;101291.72;;;19.55;61.29
64841;BME280;51307;52.162;7.560;2023-09-08T06:14:30;101297.34;;;19.34;61.83
64841;BME280;51307;52.162;7.560;2023-09-08T06:16:56;101294.22;;;19.50;62.25
64841;BME280;51307;52.162;7.560;2023-09-08T06:19:21;101288.19;;;19.75;60.82
64841;BME280;51307;52.162;7.560;2023-09-08T06:21:47;101299.03;;;19.75;61.25
64841;BME280;51307;52.162;7.560;2023-09-08T06:24:12;101298.00;;;19.69;61.16
64841;BME280;51307;52.162;7.560;2023-09-08T06:26:38;101296.09;;;19.56;61.85
64841;BME280;51307;52.162;7.560;2023-09-08T06:29:03;101301.31;;;19.78;61.34
64841;BME280;51307;52.162;7.560;2023-09-08T06:31:29;101299.88;;;19.75;61.38
64841;BME280;51307;52.162;7.560;2023-09-08T06:33:54;101297.13;;;19.95;60.98
64841;BME280;51307;52.162;7.560;2023-09-08T06:36:20;101295.47;;;19.94;61.12
64841;BME280;51307;52.162;7.560;2023-09-08T06:38:45;101295.69;;;20.06;60.73
64841;BME280;51307;52.162;7.560;2023-09-08T06:41:11;101296.09;;;20.23;60.18
64841;BME280;51307;52.162;7.560;2023-09-08T06:43:37;101297.78;;;20.18;60.52
64841;BME280;51307;52.162;7.560;2023-09-08T06:46:03;101304.00;;;20.31;59.89
64841;BME280;51307;52.162;7.560;2023-09-08T06:48:30;101300.03;;;20.27;60.38
64841;BME280;51307;52.162;7.560;2023-09-08T06:50:55;101303.22;;;20.18;60.93
64841;BME280;51307;52.162;7.560;2023-09-08T06:53:23;101306.34;;;20.08;61.40
64841;BME280;51307;52.162;7.560;2023-09-08T06:55:48;101303.75;;;20.40;60.72
64841;BME280;51307;52.162;7.560;2023-09-08T06:58:14;101300.00;;;20.41;60.61
64841;BME280;51307;52.162;7.560;2023-09-08T07:00:43;101304.78;;;20.45;60.29
64841;BME280;51307;52.162;7.560;2023-09-08T07:03:08;101305.00;;;20.44;60.41
64841;BME280;51307;52.162;7.560;2023-09-08T07:05:35;101301.00;;;20.53;59.82
64841;BME280;51307;52.162;7.560;2023-09-08T07:08:00;101304.38;;;20.55;59.86
64841;BME280;51307;52.162;7.560;2023-09-08T07:10:26;101303.31;;;20.49;60.59
64841;BME280;51307;52.162;7.560;2023-09-08T07:12:51;101299.69;;;20.69;60.41
64841;BME280;51307;52.162;7.560;2023-09-08T07:15:17;101297.16;;;20.74;60.21
64841;BME280;51307;52.162;7.560;2023-09-08T07:17:43;101300.06;;;20.79;60.13
64841;BME280;51307;52.162;7.560;2023-09-08T07:20:09;101309.06;;;20.80;60.12
64841;BME280;51307;52.162;7.560;2023-09-08T07:22:34;101307.16;;;20.80;59.52
64841;BME280;51307;52.162;7.560;2023-09-08T07:25:00;101306.75;;;20.84;59.89
64841;BME280;51307;52.162;7.560;2023-09-08T07:27:25;101304.44;;;20.87;59.75
64841;BME280;51307;52.162;7.560;2023-09-08T07:29:51;101298.78;;;20.89;59.83
64841;BME280;51307;52.162;7.560;2023-09-08T07:32:17;101304.63;;;20.92;59.49
64841;BME280;51307;52.162;7.560;2023-09-08T07:34:43;101309.22;;;20.98;59.46
64841;BME280;51307;52.162;7.560;2023-09-08T07:37:09;101308.25;;;20.86;59.95
64841;BME280;51307;52.162;7.560;2023-09-08T07:39:34;101300.84;;;21.00;59.61
64841;BME280;51307;52.162;7.560;2023-09-08T07:42:01;101303.56;;;21.00;59.99
64841;BME280;51307;52.162;7.560;2023-09-08T07:44:27;101295.41;;;21.00;60.13
64841;BME280;51307;52.162;7.560;2023-09-08T07:46:52;101306.00;;;21.08;60.36
64841;BME280;51307;52.162;7.560;2023-09-08T07:49:20;101300.94;;;21.19;60.07
64841;BME280;51307;52.162;7.560;2023-09-08T07:51:46;101300.03;;;21.25;59.76
64841;BME280;51307;52.162;7.560;2023-09-08T07:54:12;101293.09;;;21.29;59.66
64841;BME280;51307;52.162;7.560;2023-09-08T07:56:38;101293.88;;;21.43;60.25
64841;BME280;51307;52.162;7.560;2023-09-08T07:59:06;101296.72;;;21.48;59.50
64841;BME280;51307;52.162;7.560;2023-09-08T08:01:32;101295.03;;;21.54;59.51
64841;BME280;51307;52.162;7.560;2023-09-08T08:03:58;101291.63;;;21.58;59.26
64841;BME280;51307;52.162;7.560;2023-09-08T08:06:23;101282.84;;;21.63;59.15
64841;BME280;51307;52.162;7.560;2023-09-08T08:08:49;101287.41;;;21.62;59.65
64841;BME280;51307;52.162;7.560;2023-09-08T08:11:16;101282.84;;;21.63;59.82
64841;BME280;51307;52.162;7.560;2023-09-08T08:13:43;101288.78;;;21.78;60.50
64841;BME280;51307;52.162;7.560;2023-09-08T08:16:09;101282.66;;;21.83;59.70
64841;BME280;51307;52.162;7.560;2023-09-08T08:18:34;101289.72;;;21.91;59.92
64841;BME280;51307;52.162;7.560;2023-09-08T08:21:00;101283.44;;;21.90;59.63
64841;BME280;51307;52.162;7.560;2023-09-08T08:23:26;101288.81;;;21.97;59.58
64841;BME280;51307;52.162;7.560;2023-09-08T08:25:52;101289.06;;;21.95;59.67
64841;BME280;51307;52.162;7.560;2023-09-08T08:28:17;101298.91;;;22.15;59.42
64841;BME280;51307;52.162;7.560;2023-09-08T08:30:43;101289.44;;;22.18;59.58
64841;BME280;51307;52.162;7.560;2023-09-08T08:33:08;101295.06;;;22.23;59.07
64841;BME280;51307;52.162;7.560;2023-09-08T08:35:34;101291.28;;;22.24;58.84
64841;BME280;51307;52.162;7.560;2023-09-08T08:37:59;101297.25;;;22.32;59.15
64841;BME280;51307;52.162;7.560;2023-09-08T08:40:25;101296.16;;;22.40;59.43
64841;BME280;51307;52.162;7.560;2023-09-08T08:42:58;101291.31;;;22.42;59.88
64841;BME280;51307;52.162;7.560;2023-09-08T08:45:24;101299.25;;;22.44;59.58
64841;BME280;51307;52.162;7.560;2023-09-08T08:47:51;101296.47;;;22.51;59.19
64841;BME280;51307;52.162;7.560;2023-09-08T08:50:18;101298.72;;;22.54;58.41
64841;BME280;51307;52.162;7.560;2023-09-08T08:52:44;101296.50;;;22.62;57.84
64841;BME280;51307;52.162;7.560;2023-09-08T08:55:10;101294.00;;;22.61;58.26
64841;BME280;51307;52.162;7.560;2023-09-08T08:57:37;101292.28;;;22.67;58.33
64841;BME280;51307;52.162;7.560;2023-09-08T09:00:13;101296.13;;;22.77;58.13
64841;BME280;51307;52.162;7.560;2023-09-08T09:02:42;101297.44;;;22.87;58.90
64841;BME280;51307;52.162;7.560;2023-09-08T09:05:12;101291.56;;;22.90;58.74
64841;BME280;51307;52.162;7.560;2023-09-08T09:07:41;101287.28;;;22.94;58.27
64841;BME280;51307;52.162;7.560;2023-09-08T09:10:08;101297.34;;;22.93;58.08
64841;BME280;51307;52.162;7.560;2023-09-08T09:12:37;101293.38;;;23.08;58.75
64841;BME280;51307;52.162;7.560;2023-09-08T09:15:03;101287.94;;;23.08;58.06
64841;BME280;51307;52.162;7.560;2023-09-08T09:17:32;101288.31;;;23.11;58.24
64841;BME280;51307;52.162;7.560;2023-09-08T09:20:18;101290.25;;;23.23;57.84
64841;BME280;51307;52.162;7.560;2023-09-08T09:22:46;101296.09;;;23.26;57.95
64841;BME280;51307;52.162;7.560;2023-09-08T09:33:45;101287.59;;;23.46;57.22
64841;BME280;51307;52.162;7.560;2023-09-08T09:36:20;101290.44;;;23.52;57.39
64841;BME280;51307;52.162;7.560;2023-09-08T09:41:22;101278.69;;;23.63;56.62
64841;BME280;51307;52.162;7.560;2023-09-08T09:43:48;101283.34;;;23.62;56.89
64841;BME280;51307;52.162;7.560;2023-09-08T09:46:15;101285.97;;;23.69;56.31
64841;BME280;51307;52.162;7.560;2023-09-08T09:48:41;101280.72;;;23.79;56.49
64841;BME280;51307;52.162;7.560;2023-09-08T09:51:19;101282.16;;;23.82;57.05
64841;BME280;51307;52.162;7.560;2023-09-08T09:53:45;101276.59;;;23.89;55.73
64841;BME280;51307;52.162;7.560;2023-09-08T09:56:11;101278.75;;;23.98;55.85
64841;BME280;51307;52.162;7.560;2023-09-08T09:58:37;101286.22;;;24.03;56.29
64841;BME280;51307;52.162;7.560;2023-09-08T10:01:03;101276.09;;;24.04;56.24
64841;BME280;51307;52.162;7.560;2023-09-08T10:03:30;101269.81;;;24.15;56.97
64841;BME280;51307;52.162;7.560;2023-09-08T10:05:57;101274.44;;;24.14;55.33
64841;BME280;51307;52.162;7.560;2023-09-08T10:08:24;101273.47;;;24.21;57.42
64841;BME280;51307;52.162;7.560;2023-09-08T10:10:49;101259.69;;;24.27;55.86
64841;BME280;51307;52.162;7.560;2023-09-08T10:13:25;101261.34;;;24.28;54.82
64841;BME280;51307;52.162;7.560;2023-09-08T10:15:53;101265.50;;;24.31;55.32
64841;BME280;51307;52.162;7.560;2023-09-08T10:18:22;101257.16;;;24.38;56.12
64841;BME280;51307;52.162;7.560;2023-09-08T10:20:51;101262.00;;;24.47;55.33
64841;BME280;51307;52.162;7.560;2023-09-08T10:23:35;101263.69;;;24.48;53.41
64841;BME280;51307;52.162;7.560;2023-09-08T10:26:03;101253.44;;;24.56;53.14
64841;BME280;51307;52.162;7.560;2023-09-08T10:28:33;101257.97;;;24.62;54.61
64841;BME280;51307;52.162;7.560;2023-09-08T10:31:01;101259.69;;;24.68;51.67
64841;BME280;51307;52.162;7.560;2023-09-08T10:33:28;101256.97;;;24.68;51.50
64841;BME280;51307;52.162;7.560;2023-09-08T10:35:56;101259.19;;;24.71;50.85
64841;BME280;51307;52.162;7.560;2023-09-08T10:38:30;101261.31;;;24.81;52.80
64841;BME280;51307;52.162;7.560;2023-09-08T10:44:03;101250.66;;;24.96;48.47
64841;BME280;51307;52.162;7.560;2023-09-08T10:46:32;101249.06;;;25.00;50.41
64841;BME280;51307;52.162;7.560;2023-09-08T10:49:04;101250.25;;;25.05;52.81
64841;BME280;51307;52.162;7.560;2023-09-08T10:51:33;101257.13;;;25.07;52.18
64841;BME280;51307;52.162;7.560;2023-09-08T10:53:58;101256.88;;;25.09;50.08
64841;BME280;51307;52.162;7.560;2023-09-08T10:56:56;101255.16;;;25.20;49.85
64841;BME280;51307;52.162;7.560;2023-09-08T10:59:28;101254.22;;;25.26;50.00
64841;BME280;51307;52.162;7.560;2023-09-08T11:01:54;101255.97;;;25.32;50.24
64841;BME280;51307;52.162;7.560;2023-09-08T11:04:21;101262.19;;;25.44;49.75
64841;BME280;51307;52.162;7.560;2023-09-08T11:06:46;101260.53;;;25.43;47.96
64841;BME280;51307;52.162;7.560;2023-09-08T11:09:12;101257.88;;;25.48;49.01
64841;BME280;51307;52.162;7.560;2023-09-08T11:11:38;101253.47;;;25.47;48.46
64841;BME280;51307;52.162;7.560;2023-09-08T11:14:04;101255.28;;;25.59;47.44
64841;BME280;51307;52.162;7.560;2023-09-08T11:16:30;101244.34;;;25.59;47.31
64841;BME280;51307;52.162;7.560;2023-09-08T11:18:58;101245.53;;;25.68;48.02
64841;BME280;51307;52.162;7.560;2023-09-08T11:21:24;101244.16;;;25.65;48.87
64841;BME280;51307;52.162;7.560;2023-09-08T11:23:49;101247.03;;;25.76;47.30
64841;BME280;51307;52.162;7.560;2023-09-08T11:26:15;101242.44;;;25.81;49.21
64841;BME280;51307;52.162;7.560;2023-09-08T11:28:42;101240.31;;;25.83;48.19
64841;BME280;51307;52.162;7.560;2023-09-08T11:31:07;101238.97;;;25.86;49.09
64841;BME280;51307;52.162;7.560;2023-09-08T11:33:34;101237.31;;;25.85;49.21
64841;BME280;51307;52.162;7.560;2023-09-08T11:36:12;101233.84;;;25.90;48.42
64841;BME280;51307;52.162;7.560;2023-09-08T11:38:42;101237.25;;;25.97;48.51
64841;BME280;51307;52.162;7.560;2023-09-08T11:41:08;101230.16;;;26.01;48.76
64841;BME280;51307;52.162;7.560;2023-09-08T11:43:34;101232.97;;;26.06;50.11
64841;BME280;51307;52.162;7.560;2023-09-08T11:46:00;101231.31;;;26.05;50.63
64841;BME280;51307;52.162;7.560;2023-09-08T11:48:26;101228.97;;;26.14;49.10
64841;BME280;51307;52.162;7.560;2023-09-08T11:50:54;101227.22;;;26.08;51.12
64841;BME280;51307;52.162;7.560;2023-09-08T11:53:21;101222.72;;;26.19;48.39
64841;BME280;51307;52.162;7.560;2023-09-08T11:55:48;101223.78;;;26.17;48.55
64841;BME280;51307;52.162;7.560;2023-09-08T11:58:15;101224.38;;;26.20;48.58
64841;BME280;51307;52.162;7.560;2023-09-08T12:00:42;101220.59;;;26.26;48.56
64841;BME280;51307;52.162;7.560;2023-09-08T12:03:11;101222.25;;;26.27;46.78
64841;BME280;51307;52.162;7.560;2023-09-08T12:05:37;101220.47;;;26.38;47.77
64841;BME280;51307;52.162;7.560;2023-09-08T12:08:05;101223.13;;;26.32;47.57
64841;BME280;51307;52.162;7.560;2023-09-08T12:10:38;101210.34;;;26.38;46.43
64841;BME280;51307;52.162;7.560;2023-09-08T12:13:03;101210.44;;;26.48;46.70
64841;BME280;51307;52.162;7.560;2023-09-08T12:15:36;101209.34;;;26.49;46.50
64841;BME280;51307;52.162;7.560;2023-09-08T12:18:04;101207.50;;;26.55;46.61
64841;BME280;51307;52.162;7.560;2023-09-08T12:20:30;101200.91;;;26.51;46.88
64841;BME280;51307;52.162;7.560;2023-09-08T12:22:59;101210.00;;;26.57;47.09
64841;BME280;51307;52.162;7.560;2023-09-08T12:25:25;101205.16;;;26.64;46.95
64841;BME280;51307;52.162;7.560;2023-09-08T12:27:54;101201.31;;;26.65;46.33
64841;BME280;51307;52.162;7.560;2023-09-08T12:30:22;101205.75;;;26.71;45.57
64841;BME280;51307;52.162;7.560;2023-09-08T12:32:57;101191.25;;;26.76;43.91
64841;BME280;51307;52.162;7.560;2023-09-08T12:35:24;101193.84;;;26.88;44.39
64841;BME280;51307;52.162;7.560;2023-09-08T12:38:00;101195.16;;;26.80;44.14
64841;BME280;51307;52.162;7.560;2023-09-08T12:40:26;101190.00;;;26.89;44.33
64841;BME280;51307;52.162;7.560;2023-09-08T12:42:53;101189.75;;;26.90;44.32
64841;BME280;51307;52.162;7.560;2023-09-08T12:45:21;101188.97;;;26.95;44.12
64841;BME280;51307;52.162;7.560;2023-09-08T12:47:47;101191.28;;;27.08;44.40
64841;BME280;51307;52.162;7.560;2023-09-08T12:50:12;101188.50;;;27.03;42.19
64841;BME280;51307;52.162;7.560;2023-09-08T12:52:39;101190.72;;;27.06;41.78
64841;BME280;51307;52.162;7.560;2023-09-08T12:55:05;101188.34;;;27.15;42.67
64841;BME280;51307;52.162;7.560;2023-09-08T12:57:30;101186.41;;;27.15;42.68
64841;BME280;51307;52.162;7.560;2023-09-08T12:59:56;101182.31;;;27.18;42.38
64841;BME280;51307;52.162;7.560;2023-09-08T13:02:22;101184.84;;;27.25;42.24
64841;BME280;51307;52.162;7.560;2023-09-08T13:04:47;101189.53;;;27.29;42.43
64841;BME280;51307;52.162;7.560;2023-09-08T13:07:17;101183.81;;;27.36;43.19